Калачево

Карта отелей и гостиниц, располагающихся рядом с аэропортом Калачево :

Калачево
Челябинск
Челябинская область 54° 57' 10.1412" N, 61° 30' 8.5212" E
Код аэродрома ИКАО: 
XSCW
Код аэродрома RU: 
ЬСЦВ
Координаты: 
N54.95282° E061.50237°
Превышение над уровнем моря : 
226
Основная полоса: 
12R/30L
Курс магнитный: 
122,1/302,1
Длина основной ВПП: 
1300
Ширина основной ВПП: 
65
Покрытие основной ВПП: 
Нетвёрдое (грунт)
Тип: 
Аэродром
Освещение ВПП: 
Нет
Класс аэродрома: 
Статус: 
Действующий
Принадлежность: 
АОН
Сайт: 
http://www.chel-avia.ru
E-mail аэродрома: 
director@chel-avia.ru
Страна: 
Россия
Регион: 
Челябинская область
Город: 
Челябинск
Дополнительная информация: 
Совместного использования (ДОСААФ и АОН). Оператор: АК "ЧелАвиа". Гражданский индекс: USCW / УСЦВ.

Найти трансфер

С помощью этой формы Вы можете найти трансфер из аэропорта Калачево в город, аэропорт или вокзал:

Карта места

Javascript is required to view this map.

Погода в аэропортах:

Авиационная погода в Ульяновске

Регион: 
Погода METAR: 
UWLW 141800Z 11002MPS 8000 TS BKN040CB 29/16 Q1008 R02/CLRD60 NOSIG RMK QFE749
Время наблюдения: 
2020-07-14T18:00:00Z
Температура C: 
29.0
Точка росы: 
16.0
Направление ветра: 
110
Скорость ветра: 
4
Метеорологическая видимость: 
4.97
Явления погоды: 
TS
Условия полета: 
MVFR

Авиационная погода в аэропорту Новый

Регион: 
Погода METAR: 
UHHH 141730Z VRB01MPS 3600 BR NSC 17/15 Q1004 R23L/090060 NOSIG RMK QBB050 QFE747/0996
Время наблюдения: 
2020-07-14T17:30:00Z
Температура C: 
17.0
Точка росы: 
15.0
Направление ветра: 
0
Скорость ветра: 
2
Метеорологическая видимость: 
2.24
Явления погоды: 
BR
Условия полета: 
IFR
Аэропорт подробнее: 

Авиационная погода в аэропорту Алыкель

Регион: 
Погода METAR: 
UOOO 141800Z 30005MPS 0300 0250S FG VV002 10/09 Q1008 R19/15//57 NOSIG RMK QFE740/0986
Время наблюдения: 
2020-07-14T18:00:00Z
Температура C: 
10.0
Точка росы: 
9.0
Направление ветра: 
300
Скорость ветра: 
10
Метеорологическая видимость: 
0.19
Явления погоды: 
FG
Условия полета: 
LIFR
Аэропорт подробнее: 

Авиационная погода в Угольном

Регион: 
Погода METAR: 
UHMA 141800Z 00000MPS 1900 -DZ BR BKN004 BKN011 10/09 Q1003 R01/////// NOSIG RMK TDZ R01/00000G01MPS END R01/05001MPS MT OBSC QFE748/0998
Время наблюдения: 
2020-07-14T18:00:00Z
Температура C: 
10.0
Точка росы: 
9.0
Направление ветра: 
0
Скорость ветра: 
0
Метеорологическая видимость: 
1.18
Явления погоды: 
-DZ BR
Условия полета: 
LIFR
Аэропорт подробнее: